createdAt,value
2019-02-14T00:02:39.493Z,4.90
2019-02-14T00:05:45.297Z,4.87
2019-02-14T00:08:51.109Z,4.80
2019-02-14T00:11:56.884Z,4.77
2019-02-14T00:15:02.653Z,4.92
2019-02-14T00:18:08.431Z,4.78
2019-02-14T00:21:14.317Z,4.87
2019-02-14T00:24:20.107Z,4.89
2019-02-14T00:27:25.861Z,4.71
2019-02-14T00:30:31.704Z,4.51
2019-02-14T00:33:37.474Z,4.50
2019-02-14T00:36:43.296Z,4.59
2019-02-14T00:39:49.059Z,4.47
2019-02-14T00:42:54.919Z,4.49
2019-02-14T00:46:00.780Z,4.31
2019-02-14T00:49:06.557Z,4.47
2019-02-14T00:52:12.311Z,4.48
2019-02-14T00:55:18.141Z,4.53
2019-02-14T00:58:23.879Z,4.42
2019-02-14T01:01:29.601Z,4.58
2019-02-14T01:04:35.333Z,4.47
2019-02-14T01:07:41.223Z,4.46
2019-02-14T01:10:46.977Z,4.39
2019-02-14T01:13:52.740Z,4.36
2019-02-14T01:16:58.545Z,3.92
2019-02-14T01:20:04.992Z,4.46
2019-02-14T01:23:10.763Z,4.47
2019-02-14T01:26:16.494Z,4.36
2019-02-14T01:29:22.444Z,4.47
2019-02-14T01:32:28.212Z,4.49
2019-02-14T01:35:41.652Z,4.64
2019-02-14T01:38:41.551Z,4.26
2019-02-14T01:41:47.314Z,4.51
2019-02-14T01:44:53.028Z,4.26
2019-02-14T01:47:58.873Z,4.10
2019-02-14T01:51:04.646Z,4.06
2019-02-14T01:54:12.923Z,4.46
2019-02-14T01:57:18.640Z,4.29
2019-02-14T02:00:24.724Z,4.31
2019-02-14T02:03:30.576Z,4.25
2019-02-14T02:06:36.393Z,4.63
2019-02-14T02:09:42.419Z,4.23
2019-02-14T02:12:48.168Z,4.42
2019-02-14T02:15:54.075Z,4.40
2019-02-14T02:18:59.833Z,4.31
2019-02-14T02:22:05.681Z,4.35
2019-02-14T02:25:12.253Z,4.33
2019-02-14T02:28:19.019Z,4.54
2019-02-14T02:31:24.904Z,4.52
2019-02-14T02:34:30.675Z,4.64
2019-02-14T02:37:36.485Z,4.30
2019-02-14T02:40:42.237Z,4.39
2019-02-14T02:43:48.041Z,4.66
2019-02-14T02:46:53.822Z,4.22
2019-02-14T02:49:59.585Z,4.31
2019-02-14T02:53:05.469Z,4.35
2019-02-14T02:56:11.625Z,3.92
2019-02-14T02:59:17.403Z,3.85
2019-02-14T03:02:23.196Z,3.89
2019-02-14T03:05:28.941Z,3.97
2019-02-14T03:08:35.721Z,3.92
2019-02-14T03:11:41.627Z,4.02
2019-02-14T03:14:47.393Z,4.12
2019-02-14T03:17:53.251Z,3.78
2019-02-14T03:20:59.013Z,4.01
2019-02-14T03:24:04.916Z,3.82
2019-02-14T03:27:10.761Z,4.01
2019-02-14T03:30:16.763Z,4.05
2019-02-14T03:33:22.534Z,3.93
2019-02-14T03:36:29.496Z,3.84
2019-02-14T03:39:35.258Z,3.87
2019-02-14T03:42:41.088Z,3.88
2019-02-14T03:45:46.838Z,4.10
2019-02-14T03:48:52.613Z,4.10
2019-02-14T03:51:58.359Z,4.35
2019-02-14T03:55:04.227Z,4.02
2019-02-14T03:58:09.992Z,3.89
2019-02-14T04:01:16.864Z,4.19
2019-02-14T04:04:22.668Z,4.11
2019-02-14T04:07:28.459Z,4.45
2019-02-14T04:10:34.269Z,4.27
2019-02-14T04:13:40.100Z,4.26
2019-02-14T04:16:45.868Z,4.35
2019-02-14T04:19:51.726Z,4.25
2019-02-14T04:22:57.499Z,4.38
2019-02-14T04:26:03.258Z,4.22
2019-02-14T04:29:09.034Z,4.39
2019-02-14T04:32:14.797Z,4.18
2019-02-14T04:35:20.561Z,4.35
2019-02-14T04:38:26.304Z,4.20
2019-02-14T04:41:32.080Z,4.16
2019-02-14T04:44:37.901Z,4.12
2019-02-14T04:47:43.954Z,4.16
2019-02-14T04:50:49.707Z,4.26
2019-02-14T04:53:55.488Z,4.41
2019-02-14T04:57:01.382Z,4.35
2019-02-14T05:00:08.264Z,4.45
2019-02-14T05:03:14.181Z,4.37
2019-02-14T05:06:19.981Z,4.15
2019-02-14T05:09:28.430Z,3.98
2019-02-14T05:12:34.245Z,4.05
2019-02-14T05:15:39.989Z,4.14
2019-02-14T05:18:45.819Z,3.73
2019-02-14T05:21:51.579Z,3.96
2019-02-14T05:24:57.356Z,3.85
2019-02-14T05:28:03.249Z,4.06
2019-02-14T05:31:09.090Z,4.14
2019-02-14T05:34:14.847Z,4.22
2019-02-14T05:37:20.672Z,4.31
2019-02-14T05:40:26.446Z,4.23
2019-02-14T05:43:32.227Z,4.00
2019-02-14T05:46:38.033Z,3.97
2019-02-14T05:49:43.837Z,4.04
2019-02-14T05:52:49.587Z,4.04
2019-02-14T05:55:55.380Z,4.22
2019-02-14T05:59:01.163Z,4.37
2019-02-14T06:02:06.933Z,4.42
2019-02-14T06:05:12.923Z,4.56
2019-02-14T06:08:18.693Z,4.52
2019-02-14T06:11:24.432Z,4.37
2019-02-14T06:14:30.216Z,4.84
2019-02-14T06:17:36.010Z,4.78
2019-02-14T06:20:41.834Z,5.15
2019-02-14T06:23:47.581Z,5.14
2019-02-14T06:26:53.387Z,5.49
2019-02-14T06:29:59.264Z,5.79
2019-02-14T06:33:05.035Z,5.72
2019-02-14T06:36:10.831Z,5.69
2019-02-14T06:39:16.652Z,5.93
2019-02-14T06:42:22.419Z,6.17
2019-02-14T06:45:28.232Z,6.18
2019-02-14T06:48:34.078Z,6.07
2019-02-14T06:51:39.850Z,6.49
2019-02-14T06:54:45.623Z,6.80
2019-02-14T06:57:51.386Z,7.06
2019-02-14T07:00:57.253Z,7.00
2019-02-14T07:04:03.039Z,7.28
2019-02-14T07:07:08.841Z,6.84
2019-02-14T07:10:14.846Z,7.87
2019-02-14T07:13:20.830Z,7.70
2019-02-14T07:16:26.618Z,8.02
2019-02-14T07:19:32.403Z,8.10
2019-02-14T07:22:38.310Z,8.42
2019-02-14T07:25:44.103Z,8.58
2019-02-14T07:28:49.879Z,8.41
2019-02-14T07:31:55.729Z,8.37
2019-02-14T07:35:01.490Z,8.83
2019-02-14T07:38:07.243Z,8.68
2019-02-14T07:41:13.101Z,9.02
2019-02-14T07:44:18.894Z,8.88
2019-02-14T07:47:24.682Z,9.11
2019-02-14T07:50:30.515Z,8.96
2019-02-14T07:53:36.285Z,8.99
2019-02-14T07:56:42.047Z,9.36
2019-02-14T07:59:47.832Z,9.41
2019-02-14T08:02:53.605Z,9.25
2019-02-14T08:05:59.664Z,8.96
2019-02-14T08:09:06.541Z,9.64
2019-02-14T08:12:12.303Z,9.57
2019-02-14T08:15:18.095Z,9.85
2019-02-14T08:18:23.860Z,9.93
2019-02-14T08:21:30.779Z,9.84
2019-02-14T08:24:36.556Z,10.11
2019-02-14T08:27:42.333Z,10.02
2019-02-14T08:30:48.116Z,10.20
2019-02-14T08:33:53.893Z,10.56
2019-02-14T08:36:59.674Z,10.39
2019-02-14T08:40:08.412Z,10.83
2019-02-14T08:43:14.185Z,10.75
2019-02-14T08:46:19.963Z,11.24
2019-02-14T08:49:25.801Z,11.17
2019-02-14T08:52:31.582Z,11.23
2019-02-14T08:55:38.443Z,11.14
2019-02-14T08:58:44.276Z,11.25
2019-02-14T09:01:50.055Z,11.35
2019-02-14T09:04:55.827Z,11.60
2019-02-14T09:08:01.685Z,11.04
2019-02-14T09:11:10.150Z,11.32
2019-02-14T09:14:20.354Z,11.41
2019-02-14T09:17:26.162Z,11.41
2019-02-14T09:20:31.919Z,12.08
2019-02-14T09:23:37.752Z,11.84
2019-02-14T09:26:43.565Z,11.87
2019-02-14T09:29:49.347Z,12.37
2019-02-14T09:32:55.115Z,12.55
2019-02-14T09:36:00.911Z,13.27
2019-02-14T09:39:07.910Z,13.42
2019-02-14T09:42:13.727Z,13.62
2019-02-14T09:45:19.548Z,13.81
2019-02-14T09:48:25.329Z,13.74
2019-02-14T09:51:31.151Z,14.02
2019-02-14T09:54:38.233Z,14.36
2019-02-14T09:57:44.281Z,13.43
2019-02-14T10:00:50.075Z,14.22
2019-02-14T10:03:56.852Z,13.90
2019-02-14T10:07:02.685Z,13.45
2019-02-14T10:10:10.858Z,13.94
2019-02-14T10:13:16.719Z,13.60
2019-02-14T10:16:22.629Z,13.58
2019-02-14T10:19:28.814Z,14.06
2019-02-14T10:22:34.647Z,14.32
2019-02-14T10:25:40.475Z,14.61
2019-02-14T10:28:46.265Z,14.83
2019-02-14T10:31:52.100Z,14.98
2019-02-14T10:34:57.889Z,15.02
2019-02-14T10:38:04.793Z,14.85
2019-02-14T10:41:10.772Z,15.05
2019-02-14T10:44:16.635Z,14.78
2019-02-14T10:47:22.429Z,14.76
2019-02-14T10:50:28.224Z,14.73
2019-02-14T10:53:34.061Z,14.51
2019-02-14T10:56:40.077Z,15.03
2019-02-14T10:59:45.910Z,15.45
2019-02-14T11:02:52.734Z,15.30
2019-02-14T11:05:58.530Z,15.66
2019-02-14T11:09:05.752Z,15.11
2019-02-14T11:12:11.646Z,15.42
2019-02-14T11:15:18.998Z,15.22
2019-02-14T11:18:24.881Z,15.27
2019-02-14T11:21:30.728Z,15.35
2019-02-14T11:24:36.567Z,15.31
2019-02-14T11:27:42.431Z,15.04
2019-02-14T11:30:48.206Z,15.06
2019-02-14T11:33:53.990Z,15.69
2019-02-14T11:36:59.759Z,15.35
2019-02-14T11:40:06.265Z,15.94
2019-02-14T11:43:12.093Z,15.60
2019-02-14T11:46:17.872Z,15.87
2019-02-14T11:49:24.658Z,15.65
2019-02-14T11:52:30.484Z,15.00
2019-02-14T11:55:36.252Z,15.31
2019-02-14T11:58:42.179Z,14.29
2019-02-14T12:01:55.210Z,13.85
2019-02-14T12:04:55.450Z,14.85
2019-02-14T12:08:01.407Z,14.94
2019-02-14T12:11:07.267Z,14.86
2019-02-14T12:14:13.184Z,15.39
2019-02-14T12:17:19.092Z,15.66
2019-02-14T12:20:24.978Z,16.08
2019-02-14T12:23:30.767Z,16.09
2019-02-14T12:26:36.611Z,16.20
2019-02-14T12:29:43.619Z,16.09
2019-02-14T12:32:49.653Z,15.67
2019-02-14T12:35:55.617Z,15.89
2019-02-14T12:39:08.682Z,16.15
2019-02-14T12:42:10.505Z,16.14
2019-02-14T12:45:21.494Z,16.18
2019-02-14T12:48:25.422Z,16.09
2019-02-14T12:51:31.270Z,16.10
2019-02-14T12:54:37.085Z,16.24
2019-02-14T12:57:42.952Z,15.89
2019-02-14T13:00:48.746Z,16.31
2019-02-14T13:03:54.511Z,16.30
2019-02-14T13:07:00.364Z,16.37
2019-02-14T13:10:06.331Z,16.73
2019-02-14T13:13:12.353Z,16.73
2019-02-14T13:16:18.178Z,16.38
2019-02-14T13:19:23.995Z,15.37
2019-02-14T13:22:29.884Z,14.81
2019-02-14T13:25:35.669Z,14.56
2019-02-14T13:28:41.474Z,14.23
2019-02-14T13:31:47.305Z,14.25
2019-02-14T13:34:53.094Z,14.00
2019-02-14T13:37:58.848Z,13.57
2019-02-14T13:41:04.608Z,13.40
2019-02-14T13:44:10.484Z,13.50
2019-02-14T13:47:16.229Z,13.61
2019-02-14T13:50:22.114Z,13.81
2019-02-14T13:53:27.986Z,13.54
2019-02-14T13:56:33.863Z,13.12
2019-02-14T13:59:39.647Z,12.89
2019-02-14T14:02:45.504Z,12.53
2019-02-14T14:05:51.312Z,12.70
2019-02-14T14:08:57.126Z,12.69
2019-02-14T14:12:02.911Z,12.64
2019-02-14T14:15:09.115Z,12.31
2019-02-14T14:18:14.929Z,12.80
2019-02-14T14:21:20.714Z,12.85
2019-02-14T14:24:26.497Z,12.78
2019-02-14T14:27:32.390Z,12.55
2019-02-14T14:30:38.209Z,12.38
2019-02-14T14:33:44.031Z,11.97
2019-02-14T14:36:49.784Z,12.15
2019-02-14T14:39:55.561Z,12.06
2019-02-14T14:43:32.324Z,11.92
2019-02-14T14:46:55.854Z,12.03
2019-02-14T14:50:01.714Z,12.03
2019-02-14T14:53:07.679Z,11.87
2019-02-14T14:56:13.484Z,11.94
2019-02-14T14:59:19.284Z,12.05
2019-02-14T15:02:25.050Z,12.22
2019-02-14T15:05:30.959Z,12.34
2019-02-14T15:08:36.750Z,12.52
2019-02-14T15:11:43.535Z,12.46
2019-02-14T15:14:49.328Z,12.26
2019-02-14T15:17:55.161Z,12.07
2019-02-14T15:21:01.001Z,12.07
2019-02-14T15:24:06.782Z,11.89
2019-02-14T15:27:12.566Z,11.72
2019-02-14T15:30:19.497Z,11.75
2019-02-14T15:33:25.234Z,11.57
2019-02-14T15:36:31.095Z,11.30
2019-02-14T15:39:36.937Z,11.35
2019-02-14T15:42:42.729Z,11.34
2019-02-14T15:45:48.561Z,11.30
2019-02-14T15:48:54.454Z,11.09
2019-02-14T15:52:00.247Z,10.97
2019-02-14T15:55:06.093Z,11.03
2019-02-14T15:58:11.868Z,11.23
2019-02-14T16:01:19.028Z,11.13
2019-02-14T16:04:26.696Z,11.18
2019-02-14T16:07:32.428Z,11.13
2019-02-14T16:10:38.374Z,11.12
2019-02-14T16:13:44.151Z,11.06
2019-02-14T16:16:49.937Z,11.09
2019-02-14T16:19:57.550Z,10.93
2019-02-14T16:23:04.213Z,10.98
2019-02-14T16:26:10.771Z,11.06
2019-02-14T16:29:16.559Z,11.05
2019-02-14T16:32:22.344Z,11.07
2019-02-14T16:35:28.144Z,11.13
2019-02-14T16:38:35.528Z,10.98
2019-02-14T16:41:41.465Z,11.05
2019-02-14T16:44:47.235Z,11.08
2019-02-14T16:47:53.050Z,11.05
2019-02-14T16:50:58.849Z,11.03
2019-02-14T16:54:04.646Z,10.91
2019-02-14T16:57:10.450Z,10.88
2019-02-14T17:00:16.336Z,10.90
2019-02-14T17:03:22.132Z,10.52
2019-02-14T17:06:27.925Z,10.31
2019-02-14T17:09:33.775Z,10.45
2019-02-14T17:12:39.627Z,10.23
2019-02-14T17:15:45.442Z,10.32
2019-02-14T17:18:51.248Z,10.23
2019-02-14T17:21:57.008Z,10.25
2019-02-14T17:25:02.787Z,10.51
2019-02-14T17:28:08.680Z,10.59
2019-02-14T17:31:14.456Z,10.52
2019-02-14T17:34:20.314Z,10.65
2019-02-14T17:37:26.116Z,10.62
2019-02-14T17:40:31.926Z,10.53
2019-02-14T17:43:37.707Z,10.52
2019-02-14T17:46:43.527Z,10.23
2019-02-14T17:49:49.380Z,10.24
2019-02-14T17:52:55.191Z,10.16
2019-02-14T17:56:01.092Z,10.09
2019-02-14T17:59:06.989Z,10.29
2019-02-14T18:02:13.461Z,10.38
2019-02-14T18:05:19.262Z,9.96
2019-02-14T18:08:25.054Z,10.35
2019-02-14T18:11:30.863Z,10.22
2019-02-14T18:14:36.700Z,9.99
2019-02-14T18:17:42.452Z,10.20
2019-02-14T18:20:48.240Z,9.82
2019-02-14T18:23:54.047Z,9.87
2019-02-14T18:26:59.849Z,10.05
2019-02-14T18:30:06.266Z,10.07
2019-02-14T18:33:12.042Z,9.93
2019-02-14T18:36:17.899Z,9.68
2019-02-14T18:39:23.823Z,9.80
2019-02-14T18:42:30.358Z,9.45
2019-02-14T18:45:36.220Z,9.24
2019-02-14T18:48:42.016Z,9.13
2019-02-14T18:51:47.916Z,9.02
2019-02-14T18:54:53.723Z,9.26
2019-02-14T18:57:59.476Z,9.17
2019-02-14T19:01:05.474Z,9.07
2019-02-14T19:04:11.268Z,8.96
2019-02-14T19:07:17.074Z,8.67
2019-02-14T19:10:22.963Z,8.73
2019-02-14T19:13:28.880Z,8.79
2019-02-14T19:16:34.653Z,8.71
2019-02-14T19:19:40.431Z,8.80
2019-02-14T19:22:46.382Z,8.95
2019-02-14T19:25:52.157Z,9.06
2019-02-14T19:28:58.029Z,8.80
2019-02-14T19:32:03.822Z,8.81
2019-02-14T19:35:10.202Z,8.54
2019-02-14T19:38:16.058Z,8.69
2019-02-14T19:41:25.359Z,8.47
2019-02-14T19:44:29.440Z,8.71
2019-02-14T19:47:35.310Z,8.74
2019-02-14T19:50:41.113Z,8.98
2019-02-14T19:53:46.887Z,9.06
2019-02-14T19:56:52.677Z,8.98
2019-02-14T19:59:58.499Z,8.82
2019-02-14T20:03:04.380Z,8.70
2019-02-14T20:06:10.207Z,8.61
2019-02-14T20:09:16.013Z,8.53
2019-02-14T20:12:21.828Z,8.48
2019-02-14T20:15:36.423Z,8.59
2019-02-14T20:18:35.320Z,8.46
2019-02-14T20:21:42.081Z,8.72
2019-02-14T20:24:47.861Z,8.70
2019-02-14T20:27:53.651Z,8.57
2019-02-14T20:30:59.414Z,8.61
2019-02-14T20:34:05.234Z,8.52
2019-02-14T20:37:10.997Z,8.39
2019-02-14T20:40:16.927Z,8.26
2019-02-14T20:43:22.789Z,8.66
2019-02-14T20:46:28.565Z,8.27
2019-02-14T20:49:34.439Z,8.69
2019-02-14T20:52:40.433Z,8.89
2019-02-14T20:55:46.243Z,9.08
2019-02-14T20:58:52.147Z,9.27
2019-02-14T21:01:57.933Z,9.20
2019-02-14T21:05:03.822Z,9.28
2019-02-14T21:08:10.698Z,9.19
2019-02-14T21:11:16.491Z,9.19
2019-02-14T21:14:22.261Z,8.39
2019-02-14T21:17:28.123Z,8.04
2019-02-14T21:20:33.888Z,8.04
2019-02-14T21:23:39.711Z,7.55
2019-02-14T21:26:45.526Z,7.48
2019-02-14T21:29:51.350Z,7.30
2019-02-14T21:32:57.189Z,7.11
2019-02-14T21:36:03.033Z,7.18
2019-02-14T21:39:09.087Z,6.70
2019-02-14T21:42:20.583Z,6.91
2019-02-14T21:45:22.800Z,7.31
2019-02-14T21:48:28.573Z,6.77
2019-02-14T21:51:34.549Z,7.19
2019-02-14T21:54:40.529Z,7.03
2019-02-14T21:57:46.687Z,7.36
2019-02-14T22:00:52.487Z,7.41
2019-02-14T22:03:59.443Z,7.25
2019-02-14T22:07:05.709Z,7.28
2019-02-14T22:10:11.982Z,7.22
2019-02-14T22:13:17.800Z,7.22
2019-02-14T22:16:23.767Z,6.65
2019-02-14T22:19:29.672Z,6.86
2019-02-14T22:22:35.425Z,7.16
2019-02-14T22:25:41.199Z,7.66
2019-02-14T22:28:46.971Z,7.80
2019-02-14T22:31:52.791Z,7.58
2019-02-14T22:34:59.764Z,7.06
2019-02-14T22:38:05.742Z,7.38
2019-02-14T22:41:11.614Z,6.88
2019-02-14T22:44:17.419Z,6.95
2019-02-14T22:47:23.203Z,7.55
2019-02-14T22:50:28.972Z,7.79
2019-02-14T22:53:34.757Z,7.87
2019-02-14T22:56:40.519Z,7.33
2019-02-14T22:59:46.281Z,7.43
2019-02-14T23:02:52.054Z,7.23
2019-02-14T23:05:57.963Z,7.00
2019-02-14T23:09:05.216Z,6.65
2019-02-14T23:12:12.572Z,7.25
2019-02-14T23:15:20.698Z,7.21
2019-02-14T23:18:26.912Z,7.37
2019-02-14T23:21:32.709Z,7.74
2019-02-14T23:24:38.530Z,7.94
2019-02-14T23:27:46.572Z,8.05
2019-02-14T23:30:52.322Z,8.21
2019-02-14T23:33:58.095Z,8.25
2019-02-14T23:37:03.873Z,8.00
2019-02-14T23:40:10.180Z,8.18
2019-02-14T23:43:16.023Z,8.17
2019-02-14T23:46:21.797Z,8.26
2019-02-14T23:49:27.570Z,8.42
2019-02-14T23:52:33.404Z,8.28
2019-02-14T23:55:39.165Z,8.11
2019-02-14T23:58:45.965Z,7.94
